createdAt,value
2019-04-07T00:00:38.413Z,20.06
2019-04-07T00:01:38.276Z,20.06
2019-04-07T00:02:34.955Z,20.06
2019-04-07T00:03:32.296Z,20.06
2019-04-07T00:04:29.056Z,20.06
2019-04-07T00:05:25.752Z,20.06
2019-04-07T00:06:22.493Z,20.06
2019-04-07T00:07:19.588Z,20.06
2019-04-07T00:08:16.886Z,20.06
2019-04-07T00:09:13.699Z,20.06
2019-04-07T00:10:11.108Z,20.06
2019-04-07T00:11:08.368Z,20.06
2019-04-07T00:12:05.132Z,20.06
2019-04-07T00:13:01.815Z,20.00
2019-04-07T00:13:58.921Z,20.00
2019-04-07T00:14:56.210Z,20.00
2019-04-07T00:15:52.920Z,20.00
2019-04-07T00:16:49.621Z,20.00
2019-04-07T00:17:46.349Z,20.00
2019-04-07T00:18:43.171Z,20.00
2019-04-07T00:19:40.258Z,20.00
2019-04-07T00:20:37.525Z,20.00
2019-04-07T00:21:34.240Z,20.00
2019-04-07T00:22:30.965Z,20.00
2019-04-07T00:23:27.659Z,20.00
2019-04-07T00:24:24.638Z,20.00
2019-04-07T00:25:21.356Z,20.00
2019-04-07T00:26:18.045Z,20.00
2019-04-07T00:27:14.652Z,20.00
2019-04-07T00:28:11.822Z,20.00
2019-04-07T00:29:08.760Z,20.00
2019-04-07T00:30:05.452Z,20.00
2019-04-07T00:31:02.540Z,20.00
2019-04-07T00:31:59.345Z,20.00
2019-04-07T00:32:56.057Z,20.00
2019-04-07T00:33:53.047Z,20.00
2019-04-07T00:34:49.862Z,20.00
2019-04-07T00:35:46.866Z,20.00
2019-04-07T00:36:43.552Z,20.00
2019-04-07T00:37:40.156Z,20.00
2019-04-07T00:38:36.879Z,20.00
2019-04-07T00:39:33.623Z,20.00
2019-04-07T00:40:30.599Z,20.00
2019-04-07T00:41:27.518Z,20.00
2019-04-07T00:42:24.692Z,20.00
2019-04-07T00:43:21.506Z,20.00
2019-04-07T00:44:18.902Z,20.00
2019-04-07T00:45:16.346Z,20.00
2019-04-07T00:46:13.631Z,20.00
2019-04-07T00:47:10.639Z,20.00
2019-04-07T00:48:07.810Z,20.00
2019-04-07T00:49:05.073Z,20.00
2019-04-07T00:50:01.763Z,20.00
2019-04-07T00:50:58.448Z,20.00
2019-04-07T00:51:56.056Z,20.00
2019-04-07T00:52:53.108Z,20.00
2019-04-07T00:53:49.878Z,20.00
2019-04-07T00:54:46.980Z,20.00
2019-04-07T00:55:43.907Z,19.94
2019-04-07T00:56:41.191Z,19.94
2019-04-07T00:57:37.983Z,20.00
2019-04-07T00:58:34.670Z,19.94
2019-04-07T00:59:31.986Z,20.00
2019-04-07T01:00:29.872Z,20.00
2019-04-07T01:01:27.101Z,19.94
2019-04-07T01:02:24.444Z,19.94
2019-04-07T01:03:21.260Z,19.94
2019-04-07T01:04:17.972Z,19.94
2019-04-07T01:05:14.705Z,19.94
2019-04-07T01:06:12.174Z,19.94
2019-04-07T01:07:09.139Z,19.94
2019-04-07T01:08:06.421Z,19.94
2019-04-07T01:09:04.508Z,19.94
2019-04-07T01:10:02.043Z,19.94
2019-04-07T01:10:58.853Z,19.94
2019-04-07T01:11:55.444Z,19.94
2019-04-07T01:12:52.208Z,19.94
2019-04-07T01:13:49.022Z,19.94
2019-04-07T01:14:45.664Z,19.94
2019-04-07T01:15:42.676Z,19.94
2019-04-07T01:16:40.665Z,19.94
2019-04-07T01:17:37.914Z,19.94
2019-04-07T01:18:35.486Z,19.94
2019-04-07T01:19:32.256Z,19.94
2019-04-07T01:20:29.543Z,19.94
2019-04-07T01:21:26.276Z,19.94
2019-04-07T01:22:22.969Z,19.94
2019-04-07T01:23:19.564Z,19.94
2019-04-07T01:24:16.276Z,19.94
2019-04-07T01:25:12.968Z,19.94
2019-04-07T01:26:09.748Z,19.94
2019-04-07T01:27:06.380Z,19.94
2019-04-07T01:28:02.984Z,19.94
2019-04-07T01:29:00.214Z,19.94
2019-04-07T01:29:56.977Z,19.94
2019-04-07T01:30:54.267Z,19.94
2019-04-07T01:31:51.737Z,19.94
2019-04-07T01:32:48.592Z,19.94
2019-04-07T01:33:45.297Z,19.94
2019-04-07T01:34:42.656Z,19.94
2019-04-07T01:35:46.766Z,19.94
2019-04-07T01:36:38.141Z,19.87
2019-04-07T01:37:35.259Z,19.94
2019-04-07T01:38:32.136Z,19.87
2019-04-07T01:39:29.455Z,19.87
2019-04-07T01:40:26.196Z,19.87
2019-04-07T01:41:48.602Z,19.87
2019-04-07T01:43:20.107Z,19.87
2019-04-07T01:44:46.064Z,19.87
2019-04-07T01:46:06.459Z,19.87
2019-04-07T01:47:23.097Z,19.87
2019-04-07T01:48:36.882Z,19.87
2019-04-07T01:49:52.346Z,19.87
2019-04-07T01:51:07.296Z,19.87
2019-04-07T01:52:21.468Z,19.87
2019-04-07T01:53:38.599Z,19.87
2019-04-07T01:54:48.588Z,19.87
2019-04-07T01:55:56.371Z,19.87
2019-04-07T01:57:03.656Z,19.87
2019-04-07T01:58:18.710Z,19.87
2019-04-07T01:59:47.570Z,19.87
2019-04-07T02:01:08.697Z,19.87
2019-04-07T02:02:24.848Z,19.87
2019-04-07T02:03:56.271Z,19.87
2019-04-07T02:05:11.796Z,19.87
2019-04-07T02:06:31.132Z,19.87
2019-04-07T02:07:35.975Z,19.87
2019-04-07T02:08:50.960Z,19.87
2019-04-07T02:10:11.116Z,19.87
2019-04-07T02:11:23.319Z,19.87
2019-04-07T02:12:32.244Z,19.87
2019-04-07T02:13:55.797Z,19.87
2019-04-07T02:15:21.696Z,19.81
2019-04-07T02:16:36.818Z,19.87
2019-04-07T02:17:45.664Z,19.81
2019-04-07T02:18:51.845Z,19.81
2019-04-07T02:20:14.761Z,19.81
2019-04-07T02:21:22.408Z,19.81
2019-04-07T02:22:33.217Z,19.81
2019-04-07T02:23:48.242Z,19.81
2019-04-07T02:25:04.387Z,19.81
2019-04-07T02:26:09.163Z,19.81
2019-04-07T02:27:28.424Z,19.81
2019-04-07T02:28:47.271Z,19.81
2019-04-07T02:30:03.845Z,19.81
2019-04-07T02:31:16.981Z,19.81
2019-04-07T02:32:34.444Z,19.81
2019-04-07T02:33:33.753Z,19.81
2019-04-07T02:34:53.087Z,19.81
2019-04-07T02:36:17.973Z,19.81
2019-04-07T02:37:30.982Z,19.81
2019-04-07T02:38:38.989Z,19.81
2019-04-07T02:39:43.805Z,19.81
2019-04-07T02:41:04.079Z,19.81
2019-04-07T02:42:23.285Z,19.81
2019-04-07T02:43:32.758Z,19.81
2019-04-07T02:45:04.262Z,19.81
2019-04-07T02:46:20.230Z,19.81
2019-04-07T02:47:31.747Z,19.81
2019-04-07T02:48:47.417Z,19.81
2019-04-07T02:49:59.736Z,19.81
2019-04-07T02:51:15.888Z,19.81
2019-04-07T02:52:20.292Z,19.81
2019-04-07T02:53:48.765Z,19.81
2019-04-07T02:55:14.388Z,19.81
2019-04-07T02:56:23.758Z,19.75
2019-04-07T02:57:26.839Z,19.75
2019-04-07T02:58:36.308Z,19.81
2019-04-07T02:59:53.363Z,19.75
2019-04-07T03:01:18.721Z,19.81
2019-04-07T03:02:37.844Z,19.75
2019-04-07T03:03:41.894Z,19.75
2019-04-07T03:04:58.725Z,19.75
2019-04-07T03:06:05.471Z,19.75
2019-04-07T03:07:25.075Z,19.75
2019-04-07T03:08:41.357Z,19.75
2019-04-07T03:10:10.814Z,19.75
2019-04-07T03:11:33.210Z,19.75
2019-04-07T03:12:52.895Z,19.75
2019-04-07T03:13:52.067Z,19.75
2019-04-07T03:15:03.360Z,19.75
2019-04-07T03:16:13.086Z,19.75
2019-04-07T03:17:27.438Z,19.75
2019-04-07T03:18:58.659Z,19.75
2019-04-07T03:20:13.564Z,19.75
2019-04-07T03:21:42.486Z,19.75
2019-04-07T03:22:57.378Z,19.75
2019-04-07T03:24:02.479Z,19.75
2019-04-07T03:25:15.588Z,19.75
2019-04-07T03:26:29.382Z,19.75
2019-04-07T03:27:44.573Z,19.75
2019-04-07T03:28:59.581Z,19.75
2019-04-07T03:30:06.138Z,19.75
2019-04-07T03:31:14.756Z,19.75
2019-04-07T03:32:32.980Z,19.75
2019-04-07T03:33:52.484Z,19.75
2019-04-07T03:35:10.126Z,19.75
2019-04-07T03:36:23.247Z,19.75
2019-04-07T03:37:36.249Z,19.69
2019-04-07T03:38:46.230Z,19.69
2019-04-07T03:40:11.616Z,19.75
2019-04-07T03:41:29.098Z,19.69
2019-04-07T03:42:44.044Z,19.69
2019-04-07T03:44:15.549Z,19.69
2019-04-07T03:45:32.646Z,19.69
2019-04-07T03:46:41.407Z,19.69
2019-04-07T03:47:56.522Z,19.69
2019-04-07T03:49:18.744Z,19.69
2019-04-07T03:50:38.668Z,19.69
2019-04-07T03:51:55.968Z,19.69
2019-04-07T03:52:59.526Z,19.69
2019-04-07T03:54:21.718Z,19.69
2019-04-07T03:55:38.503Z,19.69
2019-04-07T03:57:07.101Z,19.69
2019-04-07T03:58:36.280Z,19.69
2019-04-07T03:59:52.199Z,19.69
2019-04-07T04:01:14.205Z,19.69
2019-04-07T04:02:33.359Z,19.69
2019-04-07T04:03:40.883Z,19.69
2019-04-07T04:04:44.116Z,19.69
2019-04-07T04:05:51.298Z,19.69
2019-04-07T04:07:22.831Z,19.69
2019-04-07T04:08:36.561Z,19.69
2019-04-07T04:09:53.654Z,19.69
2019-04-07T04:11:14.115Z,19.62
2019-04-07T04:12:30.440Z,19.62
2019-04-07T04:13:47.741Z,19.62
2019-04-07T04:14:50.782Z,19.56
2019-04-07T04:16:06.267Z,19.56
2019-04-07T04:17:02.911Z,19.50
2019-04-07T04:17:59.604Z,19.44
2019-04-07T04:18:56.848Z,19.31
2019-04-07T04:19:53.630Z,19.19
2019-04-07T04:20:50.329Z,19.06
2019-04-07T04:21:47.897Z,18.87
2019-04-07T04:22:44.612Z,18.75
2019-04-07T04:23:42.983Z,18.56
2019-04-07T04:24:40.183Z,18.44
2019-04-07T04:25:37.521Z,18.37
2019-04-07T04:26:35.709Z,18.25
2019-04-07T04:27:33.333Z,18.19
2019-04-07T04:28:30.656Z,18.06
2019-04-07T04:29:27.476Z,18.00
2019-04-07T04:30:24.177Z,17.94
2019-04-07T04:31:21.654Z,17.94
2019-04-07T04:32:18.954Z,17.87
2019-04-07T04:33:15.985Z,17.81
2019-04-07T04:34:12.693Z,17.81
2019-04-07T04:35:09.395Z,17.81
2019-04-07T04:36:06.084Z,17.75
2019-04-07T04:37:03.847Z,17.75
2019-04-07T04:38:01.672Z,17.75
2019-04-07T04:38:59.136Z,17.69
2019-04-07T04:39:55.894Z,17.69
2019-04-07T04:40:52.774Z,17.75
2019-04-07T04:41:49.597Z,17.75
2019-04-07T04:42:46.427Z,17.75
2019-04-07T04:43:43.289Z,17.81
2019-04-07T04:44:40.496Z,17.87
2019-04-07T04:45:37.301Z,17.94
2019-04-07T04:46:34.451Z,18.06
2019-04-07T04:47:31.294Z,18.25
2019-04-07T04:48:27.979Z,18.44
2019-04-07T04:49:24.600Z,18.75
2019-04-07T04:50:22.149Z,19.06
2019-04-07T04:51:19.661Z,19.50
2019-04-07T04:52:16.388Z,19.87
2019-04-07T04:53:13.081Z,20.37
2019-04-07T04:54:10.936Z,20.94
2019-04-07T04:55:07.803Z,21.56
2019-04-07T04:56:04.405Z,22.25
2019-04-07T04:57:04.750Z,22.87
2019-04-07T04:57:59.597Z,23.62
2019-04-07T04:58:56.606Z,24.31
2019-04-07T04:59:54.023Z,25.00
2019-04-07T05:00:50.932Z,25.75
2019-04-07T05:01:47.837Z,26.37
2019-04-07T05:02:44.643Z,27.06
2019-04-07T05:03:41.795Z,27.69
2019-04-07T05:04:38.552Z,28.31
2019-04-07T05:05:35.636Z,28.87
2019-04-07T05:06:33.126Z,29.44
2019-04-07T05:07:30.094Z,30.00
2019-04-07T05:08:27.099Z,30.69
2019-04-07T05:09:24.459Z,31.56
2019-04-07T05:10:21.348Z,29.44
2019-04-07T05:11:18.044Z,28.06
2019-04-07T05:12:15.316Z,29.69
2019-04-07T05:13:12.076Z,31.50
2019-04-07T05:14:08.953Z,32.25
2019-04-07T05:15:06.318Z,32.38
2019-04-07T05:16:03.727Z,32.19
2019-04-07T05:17:00.712Z,32.06
2019-04-07T05:17:57.382Z,32.19
2019-04-07T05:18:54.123Z,32.81
2019-04-07T05:19:50.970Z,33.44
2019-04-07T05:20:47.712Z,33.81
2019-04-07T05:21:44.387Z,33.94
2019-04-07T05:22:41.206Z,33.81
2019-04-07T05:23:38.509Z,33.25
2019-04-07T05:24:35.252Z,32.06
2019-04-07T05:25:31.887Z,30.37
2019-04-07T05:26:29.138Z,28.44
2019-04-07T05:27:25.975Z,27.37
2019-04-07T05:28:22.793Z,27.81
2019-04-07T05:29:20.072Z,29.06
2019-04-07T05:30:16.920Z,30.44
2019-04-07T05:31:13.606Z,31.56
2019-04-07T05:32:11.019Z,32.44
2019-04-07T05:33:07.697Z,33.06
2019-04-07T05:34:04.303Z,33.50
2019-04-07T05:35:01.095Z,33.88
2019-04-07T05:35:58.302Z,34.13
2019-04-07T05:36:55.325Z,34.31
2019-04-07T05:38:01.556Z,34.50
2019-04-07T05:38:51.076Z,34.63
2019-04-07T05:39:48.381Z,34.75
2019-04-07T05:40:45.092Z,34.81
2019-04-07T05:41:41.701Z,34.88
2019-04-07T05:42:38.945Z,34.94
2019-04-07T05:43:35.689Z,35.06
2019-04-07T05:44:32.396Z,35.13
2019-04-07T05:45:29.094Z,35.31
2019-04-07T05:46:28.067Z,35.44
2019-04-07T05:47:24.309Z,35.56
2019-04-07T05:48:21.551Z,35.63
2019-04-07T05:49:19.091Z,35.75
2019-04-07T05:50:16.726Z,35.88
2019-04-07T05:51:13.451Z,36.00
2019-04-07T05:52:10.125Z,36.19
2019-04-07T05:53:10.998Z,36.31
2019-04-07T05:54:05.329Z,36.44
2019-04-07T05:55:02.702Z,36.56
2019-04-07T05:55:59.564Z,36.56
2019-04-07T05:56:59.564Z,36.38
2019-04-07T05:57:54.822Z,36.13
2019-04-07T05:58:51.699Z,35.88
2019-04-07T05:59:48.812Z,35.75
2019-04-07T06:00:46.950Z,35.63
2019-04-07T06:01:44.580Z,35.50
2019-04-07T06:02:41.689Z,35.38
2019-04-07T06:03:41.232Z,35.25
2019-04-07T06:04:36.878Z,35.13
2019-04-07T06:05:33.572Z,35.06
2019-04-07T06:06:30.988Z,35.00
2019-04-07T06:07:30.711Z,34.88
2019-04-07T06:08:34.047Z,34.56
2019-04-07T06:09:25.389Z,33.81
2019-04-07T06:10:25.499Z,32.81
2019-04-07T06:11:20.615Z,31.37
2019-04-07T06:12:17.330Z,30.00
2019-04-07T06:13:14.788Z,29.00
2019-04-07T06:14:14.958Z,29.00
2019-04-07T06:15:10.923Z,30.12
2019-04-07T06:16:08.006Z,31.62
2019-04-07T06:17:04.953Z,33.06
2019-04-07T06:18:02.416Z,34.19
2019-04-07T06:19:03.683Z,35.13
2019-04-07T06:19:57.861Z,35.81
2019-04-07T06:20:54.544Z,36.19
2019-04-07T06:21:51.656Z,36.31
2019-04-07T06:22:52.826Z,36.13
2019-04-07T06:23:46.903Z,35.94
2019-04-07T06:24:43.803Z,35.69
2019-04-07T06:25:42.346Z,35.50
2019-04-07T06:26:41.520Z,35.31
2019-04-07T06:27:38.289Z,35.19
2019-04-07T06:28:35.184Z,35.06
2019-04-07T06:29:31.785Z,34.94
2019-04-07T06:30:31.186Z,34.81
2019-04-07T06:31:27.244Z,34.63
2019-04-07T06:32:25.818Z,34.31
2019-04-07T06:33:22.517Z,33.69
2019-04-07T06:34:19.204Z,32.75
2019-04-07T06:35:15.920Z,31.44
2019-04-07T06:36:13.193Z,30.00
2019-04-07T06:37:10.025Z,28.94
2019-04-07T06:38:07.890Z,28.75
2019-04-07T06:39:05.248Z,29.81
2019-04-07T06:40:01.848Z,31.37
2019-04-07T06:41:00.890Z,32.94
2019-04-07T06:41:58.931Z,34.25
2019-04-07T06:42:55.791Z,34.75
2019-04-07T06:43:52.798Z,34.81
2019-04-07T06:44:51.125Z,34.81
2019-04-07T06:46:13.744Z,34.81
2019-04-07T06:47:17.968Z,34.81
2019-04-07T06:48:15.276Z,34.75
2019-04-07T06:49:30.180Z,34.69
2019-04-07T06:50:56.922Z,34.63
2019-04-07T06:52:09.351Z,34.56
2019-04-07T06:53:21.804Z,34.50
2019-04-07T06:54:37.910Z,34.44
2019-04-07T06:55:43.965Z,34.31
2019-04-07T06:57:05.023Z,34.19
2019-04-07T06:58:18.550Z,34.06
2019-04-07T06:59:38.480Z,33.94
2019-04-07T07:01:10.092Z,33.88
2019-04-07T07:02:22.459Z,33.81
2019-04-07T07:03:54.169Z,33.81
2019-04-07T07:05:12.051Z,33.81
2019-04-07T07:06:29.875Z,33.81
2019-04-07T07:08:01.975Z,33.75
2019-04-07T07:09:13.708Z,33.81
2019-04-07T07:10:43.788Z,33.75
2019-04-07T07:11:50.758Z,33.31
2019-04-07T07:13:15.574Z,32.75
2019-04-07T07:14:43.725Z,31.62
2019-04-07T07:15:58.515Z,30.06
2019-04-07T07:17:04.435Z,28.44
2019-04-07T07:18:39.317Z,28.12
2019-04-07T07:20:04.254Z,29.87
2019-04-07T07:21:05.073Z,32.19
2019-04-07T07:22:21.248Z,33.50
2019-04-07T07:23:28.532Z,34.50
2019-04-07T07:24:26.533Z,34.69
2019-04-07T07:25:23.496Z,34.63
2019-04-07T07:26:21.756Z,34.50
2019-04-07T07:27:18.696Z,34.31
2019-04-07T07:28:16.083Z,34.13
2019-04-07T07:29:14.681Z,34.06
2019-04-07T07:30:12.051Z,33.94
2019-04-07T07:31:08.888Z,33.88
2019-04-07T07:32:06.330Z,33.75
2019-04-07T07:33:07.349Z,33.75
2019-04-07T07:34:01.598Z,33.69
2019-04-07T07:34:58.718Z,33.63
2019-04-07T07:35:55.497Z,33.56
2019-04-07T07:36:54.812Z,33.56
2019-04-07T07:37:50.981Z,33.56
2019-04-07T07:38:57.555Z,33.38
2019-04-07T07:39:47.048Z,33.13
2019-04-07T07:40:44.984Z,32.75
2019-04-07T07:41:42.288Z,32.13
2019-04-07T07:42:38.894Z,31.37
2019-04-07T07:43:35.604Z,30.50
2019-04-07T07:44:36.084Z,29.50
2019-04-07T07:45:30.763Z,28.38
2019-04-07T07:46:27.902Z,27.94
2019-04-07T07:47:25.313Z,28.50
2019-04-07T07:48:26.191Z,29.81
2019-04-07T07:49:20.626Z,31.31
2019-04-07T07:50:17.886Z,32.69
2019-04-07T07:51:15.308Z,33.63
2019-04-07T07:52:12.601Z,34.19
2019-04-07T07:53:09.312Z,34.31
2019-04-07T07:54:06.056Z,34.31
2019-04-07T07:55:03.056Z,34.19
2019-04-07T07:56:00.970Z,34.06
2019-04-07T07:56:58.044Z,33.88
2019-04-07T07:57:58.103Z,33.75
2019-04-07T07:58:53.945Z,33.63
2019-04-07T07:59:50.944Z,33.56
2019-04-07T08:00:47.730Z,33.50
2019-04-07T08:01:46.300Z,33.44
2019-04-07T08:02:42.916Z,33.38
2019-04-07T08:03:40.446Z,33.25
2019-04-07T08:04:37.739Z,33.00
2019-04-07T08:05:34.685Z,32.63
2019-04-07T08:06:31.729Z,32.13
2019-04-07T08:07:28.831Z,31.44
2019-04-07T08:08:25.631Z,30.69
2019-04-07T08:09:25.179Z,29.94
2019-04-07T08:10:23.251Z,29.19
2019-04-07T08:11:19.320Z,28.62
2019-04-07T08:12:16.333Z,28.19
2019-04-07T08:13:13.108Z,27.81
2019-04-07T08:14:10.001Z,27.50
2019-04-07T08:15:07.092Z,27.19
2019-04-07T08:16:03.793Z,26.75
2019-04-07T08:17:03.358Z,26.37
2019-04-07T08:18:03.180Z,26.06
2019-04-07T08:18:59.571Z,25.81
2019-04-07T08:19:56.717Z,25.62
2019-04-07T08:20:53.509Z,25.56
2019-04-07T08:21:51.521Z,25.44
2019-04-07T08:22:49.270Z,25.37
2019-04-07T08:23:46.022Z,25.31
2019-04-07T08:24:42.786Z,25.25
2019-04-07T08:25:40.069Z,25.19
2019-04-07T08:26:36.840Z,25.12
2019-04-07T08:27:33.532Z,25.06
2019-04-07T08:28:33.666Z,25.00
2019-04-07T08:29:29.128Z,24.94
2019-04-07T08:30:26.082Z,24.87
2019-04-07T08:31:22.953Z,24.81
2019-04-07T08:32:19.820Z,24.75
2019-04-07T08:33:16.876Z,24.75
2019-04-07T08:34:14.265Z,24.69
2019-04-07T08:35:10.980Z,24.63
2019-04-07T08:36:11.114Z,24.63
2019-04-07T08:37:06.160Z,24.56
2019-04-07T08:38:03.370Z,24.50
2019-04-07T08:39:00.626Z,24.44
2019-04-07T08:39:58.005Z,24.37
2019-04-07T08:40:55.225Z,24.37
2019-04-07T08:41:52.828Z,24.31
2019-04-07T08:42:50.168Z,24.31
2019-04-07T08:43:48.348Z,24.25
2019-04-07T08:44:45.241Z,24.19
2019-04-07T08:45:42.474Z,24.19
2019-04-07T08:46:41.742Z,24.12
2019-04-07T08:47:38.103Z,24.12
2019-04-07T08:48:34.824Z,24.06
2019-04-07T08:49:32.830Z,24.00
2019-04-07T08:50:30.080Z,24.00
2019-04-07T08:51:27.428Z,23.94
2019-04-07T08:52:25.952Z,23.94
2019-04-07T08:53:22.957Z,23.87
2019-04-07T08:54:19.961Z,23.87
2019-04-07T08:55:20.034Z,23.81
2019-04-07T08:56:15.483Z,23.81
2019-04-07T08:57:12.253Z,23.75
2019-04-07T08:58:08.952Z,23.75
2019-04-07T08:59:08.466Z,23.69
2019-04-07T09:00:05.036Z,23.69
2019-04-07T09:01:02.191Z,23.62
2019-04-07T09:01:58.875Z,23.62
2019-04-07T09:03:03.649Z,23.62
2019-04-07T09:03:54.229Z,23.56
2019-04-07T09:04:52.323Z,23.56
2019-04-07T09:05:50.400Z,23.50
2019-04-07T09:06:47.504Z,23.50
2019-04-07T09:07:44.716Z,23.44
2019-04-07T09:08:41.456Z,23.44
2019-04-07T09:09:44.823Z,23.38
2019-04-07T09:10:56.654Z,23.38
2019-04-07T09:11:56.340Z,23.31
2019-04-07T09:12:51.993Z,23.31
2019-04-07T09:13:53.057Z,23.25
2019-04-07T09:14:50.232Z,23.25
2019-04-07T09:16:17.388Z,23.19
2019-04-07T09:17:49.626Z,23.19
2019-04-07T09:19:12.451Z,23.12
2019-04-07T09:20:27.976Z,23.06
2019-04-07T09:21:51.722Z,23.06
2019-04-07T09:23:10.233Z,23.00
2019-04-07T09:24:13.876Z,23.00
2019-04-07T09:25:41.060Z,22.94
2019-04-07T09:27:04.477Z,22.94
2019-04-07T09:28:19.936Z,22.87
2019-04-07T09:29:27.433Z,22.87
2019-04-07T09:30:52.551Z,22.81
2019-04-07T09:32:11.957Z,22.81
2019-04-07T09:33:40.230Z,22.75
2019-04-07T09:35:15.563Z,22.75
2019-04-07T09:36:35.308Z,22.69
2019-04-07T09:37:47.094Z,22.62
2019-04-07T09:39:01.834Z,22.62
2019-04-07T09:40:17.429Z,22.62
2019-04-07T09:41:28.353Z,22.56
2019-04-07T09:43:01.074Z,22.56
2019-04-07T09:44:35.989Z,22.50
2019-04-07T09:45:59.553Z,22.50
2019-04-07T09:47:24.565Z,22.44
2019-04-07T09:48:40.537Z,22.44
2019-04-07T09:49:59.438Z,22.37
2019-04-07T09:51:27.627Z,22.37
2019-04-07T09:52:49.628Z,22.31
2019-04-07T09:54:00.341Z,22.31
2019-04-07T09:55:32.105Z,22.31
2019-04-07T09:56:48.332Z,22.25
2019-04-07T09:58:13.449Z,22.25
2019-04-07T09:59:26.569Z,22.19
2019-04-07T10:00:31.001Z,22.19
2019-04-07T10:02:05.904Z,22.19
2019-04-07T10:03:23.272Z,22.13
2019-04-07T10:04:51.299Z,22.13
2019-04-07T10:06:13.378Z,22.06
2019-04-07T10:07:29.567Z,22.06
2019-04-07T10:08:33.745Z,22.06
2019-04-07T10:10:07.594Z,22.00
2019-04-07T10:11:26.314Z,22.00
2019-04-07T10:12:33.529Z,22.00
2019-04-07T10:13:47.516Z,21.94
2019-04-07T10:14:56.326Z,21.94
2019-04-07T10:16:24.532Z,21.94
2019-04-07T10:17:49.622Z,21.87
2019-04-07T10:19:02.161Z,21.87
2019-04-07T10:20:17.849Z,21.87
2019-04-07T10:21:33.196Z,21.87
2019-04-07T10:22:39.567Z,21.81
2019-04-07T10:23:50.608Z,21.81
2019-04-07T10:24:57.109Z,21.81
2019-04-07T10:26:14.607Z,21.81
2019-04-07T10:27:34.252Z,21.75
2019-04-07T10:29:02.815Z,21.75
2019-04-07T10:30:17.896Z,21.75
2019-04-07T10:31:34.118Z,21.75
2019-04-07T10:32:38.462Z,21.75
2019-04-07T10:33:53.875Z,21.69
2019-04-07T10:35:03.115Z,21.69
2019-04-07T10:36:20.653Z,21.69
2019-04-07T10:37:40.068Z,21.62
2019-04-07T10:39:14.609Z,21.62
2019-04-07T10:40:28.650Z,21.62
2019-04-07T10:41:44.091Z,21.62
2019-04-07T10:42:58.498Z,21.56
2019-04-07T10:44:01.690Z,21.56
2019-04-07T10:45:23.713Z,21.56
2019-04-07T10:46:38.180Z,21.56
2019-04-07T10:48:09.762Z,21.50
2019-04-07T10:49:31.826Z,21.50
2019-04-07T10:50:39.158Z,21.50
2019-04-07T10:51:59.275Z,21.50
2019-04-07T10:53:08.176Z,21.44
2019-04-07T10:54:18.995Z,21.44
2019-04-07T10:55:32.975Z,21.44
2019-04-07T10:56:50.330Z,21.44
2019-04-07T10:58:07.246Z,21.44
2019-04-07T10:59:23.543Z,21.37
2019-04-07T11:00:46.358Z,21.37
2019-04-07T11:02:03.581Z,21.37
2019-04-07T11:03:28.366Z,21.37
2019-04-07T11:05:03.259Z,21.31
2019-04-07T11:06:19.443Z,21.31
2019-04-07T11:07:42.082Z,21.31
2019-04-07T11:09:11.134Z,21.31
2019-04-07T11:10:37.870Z,21.25
2019-04-07T11:12:06.772Z,21.25
2019-04-07T11:13:23.183Z,21.25
2019-04-07T11:14:45.645Z,21.25
2019-04-07T11:15:51.978Z,21.19
2019-04-07T11:17:25.296Z,21.19
2019-04-07T11:18:39.218Z,21.19
2019-04-07T11:20:04.118Z,21.19
2019-04-07T11:21:23.721Z,21.19
2019-04-07T11:22:38.868Z,21.19
2019-04-07T11:23:49.471Z,21.12
2019-04-07T11:25:06.293Z,21.12
2019-04-07T11:26:18.054Z,21.12
2019-04-07T11:27:46.830Z,21.12
2019-04-07T11:29:06.472Z,21.12
2019-04-07T11:30:24.518Z,21.06
2019-04-07T11:31:35.185Z,21.06
2019-04-07T11:32:57.756Z,21.06
2019-04-07T11:33:58.879Z,21.06
2019-04-07T11:35:17.048Z,21.06
2019-04-07T11:36:25.554Z,21.06
2019-04-07T11:37:30.924Z,21.00
2019-04-07T11:38:34.081Z,21.00
2019-04-07T11:39:50.588Z,21.00
2019-04-07T11:41:10.177Z,21.00
2019-04-07T11:42:41.687Z,21.00
2019-04-07T11:43:45.129Z,21.00
2019-04-07T11:45:20.545Z,20.94
2019-04-07T11:46:35.135Z,20.94
2019-04-07T11:48:03.493Z,20.94
2019-04-07T11:49:16.032Z,20.94
2019-04-07T11:50:35.118Z,20.94
2019-04-07T11:51:51.306Z,20.94
2019-04-07T11:52:56.334Z,20.94
2019-04-07T11:54:08.698Z,20.94
2019-04-07T11:55:13.676Z,20.88
2019-04-07T11:56:28.630Z,20.88
2019-04-07T11:57:35.394Z,20.88
2019-04-07T11:59:00.697Z,20.88
2019-04-07T12:00:29.291Z,20.88
2019-04-07T12:02:07.390Z,20.88
2019-04-07T12:03:14.976Z,20.81
2019-04-07T12:04:30.685Z,20.81
2019-04-07T12:05:39.825Z,20.81
2019-04-07T12:06:59.062Z,20.81
2019-04-07T12:08:33.568Z,20.81
2019-04-07T12:09:43.240Z,20.81
2019-04-07T12:11:06.486Z,20.75
2019-04-07T12:12:14.070Z,20.75
2019-04-07T12:13:42.749Z,20.75
2019-04-07T12:15:03.205Z,20.75
2019-04-07T12:16:20.128Z,20.75
2019-04-07T12:17:31.934Z,20.75
2019-04-07T12:18:50.203Z,20.75
2019-04-07T12:20:05.352Z,20.75
2019-04-07T12:21:19.348Z,20.75
2019-04-07T12:22:21.688Z,20.75
2019-04-07T12:23:30.621Z,20.69
2019-04-07T12:24:50.197Z,20.69
2019-04-07T12:26:25.943Z,20.69
2019-04-07T12:27:54.826Z,20.69
2019-04-07T12:29:07.960Z,20.69
2019-04-07T12:30:18.171Z,20.69
2019-04-07T12:31:37.394Z,20.62
2019-04-07T12:32:54.101Z,20.62
2019-04-07T12:34:12.088Z,20.62
2019-04-07T12:35:27.683Z,20.62
2019-04-07T12:36:47.631Z,20.62
2019-04-07T12:37:57.173Z,20.62
2019-04-07T12:39:18.896Z,20.62
2019-04-07T12:40:34.288Z,20.62
2019-04-07T12:42:03.871Z,20.62
2019-04-07T12:43:14.155Z,20.56
2019-04-07T12:44:17.102Z,20.56
2019-04-07T12:45:39.572Z,20.56
2019-04-07T12:46:55.636Z,20.56
2019-04-07T12:48:04.730Z,20.56
2019-04-07T12:49:18.833Z,20.56
2019-04-07T12:50:32.902Z,20.56
2019-04-07T12:52:08.513Z,20.56
2019-04-07T12:53:36.051Z,20.56
2019-04-07T12:54:44.879Z,20.50
2019-04-07T12:56:01.898Z,20.50
2019-04-07T12:57:28.761Z,20.50
2019-04-07T12:58:54.063Z,20.50
2019-04-07T13:00:22.646Z,20.50
2019-04-07T13:01:44.568Z,20.50
2019-04-07T13:02:51.620Z,20.50
2019-04-07T13:04:05.705Z,20.50
2019-04-07T13:05:21.359Z,20.50
2019-04-07T13:06:28.804Z,20.44
2019-04-07T13:07:42.894Z,20.44
2019-04-07T13:09:05.947Z,20.44
2019-04-07T13:10:20.973Z,20.44
2019-04-07T13:11:36.225Z,20.44
2019-04-07T13:12:59.826Z,20.44
2019-04-07T13:14:15.160Z,20.44
2019-04-07T13:15:20.541Z,20.44
2019-04-07T13:16:42.806Z,20.44
2019-04-07T13:18:12.048Z,20.44
2019-04-07T13:19:30.406Z,20.44
2019-04-07T13:20:55.277Z,20.44
2019-04-07T13:22:18.298Z,20.44
2019-04-07T13:23:29.822Z,20.44
2019-04-07T13:24:38.971Z,20.37
2019-04-07T13:25:57.831Z,20.37
2019-04-07T13:27:14.135Z,20.37
2019-04-07T13:28:37.127Z,20.37
2019-04-07T13:29:59.712Z,20.37
2019-04-07T13:31:28.681Z,20.37
2019-04-07T13:32:39.562Z,20.37
2019-04-07T13:33:49.095Z,20.37
2019-04-07T13:35:05.284Z,20.31
2019-04-07T13:36:18.001Z,20.31
2019-04-07T13:37:34.800Z,20.37
2019-04-07T13:38:40.404Z,20.31
2019-04-07T13:40:02.662Z,20.31
2019-04-07T13:41:18.852Z,20.31
2019-04-07T13:42:24.869Z,20.31
2019-04-07T13:43:31.173Z,20.31
2019-04-07T13:44:38.777Z,20.31
2019-04-07T13:46:00.177Z,20.31
2019-04-07T13:47:12.889Z,20.31
2019-04-07T13:48:39.980Z,20.31
2019-04-07T13:49:57.326Z,20.31
2019-04-07T13:51:15.628Z,20.31
2019-04-07T13:52:30.098Z,20.31
2019-04-07T13:54:02.132Z,20.31
2019-04-07T13:55:23.178Z,20.31
2019-04-07T13:56:48.119Z,20.25
2019-04-07T13:57:58.121Z,20.25
2019-04-07T13:59:13.796Z,20.25
2019-04-07T14:00:18.488Z,20.25
2019-04-07T14:01:21.331Z,20.25
2019-04-07T14:02:53.670Z,20.25
2019-04-07T14:04:10.526Z,20.25
2019-04-07T14:05:33.160Z,20.25
2019-04-07T14:06:48.997Z,20.25
2019-04-07T14:07:55.600Z,20.25
2019-04-07T14:09:05.602Z,20.25
2019-04-07T14:10:28.410Z,20.19
2019-04-07T14:11:56.469Z,20.19
2019-04-07T14:12:48.992Z,20.19
2019-04-07T14:14:03.114Z,20.19
2019-04-07T14:15:11.412Z,20.19
2019-04-07T14:16:27.990Z,20.19
2019-04-07T14:17:47.117Z,20.19
2019-04-07T14:18:53.051Z,20.19
2019-04-07T14:20:11.451Z,20.19
2019-04-07T14:21:30.688Z,20.19
2019-04-07T14:22:35.179Z,20.19
2019-04-07T14:23:44.667Z,20.19
2019-04-07T14:24:48.316Z,20.19
2019-04-07T14:26:03.616Z,20.19
2019-04-07T14:27:20.681Z,20.19